LGKV/KVA METAR and TAF weather

Enter ICAO airport designator
Station Type Date Time Source
LGKV METAR 2021/07/28 18:50 UTC NOAA

LGKV 281850Z 00000KT 9999 FEW035 27/22 Q1014


Station Type Date Time Source
LGKV Decoded METAR 2021/07/28 18:50 UTC NOAA

Chrysoupoli Airport , Greece (LGKV) 40-59N 024-36E 5M
Jul 28, 2021 - 02:50 PM EDT / 2021.07.28 1850 UTC
Wind: Calm:0
Visibility: greater than 7 mile(s):0
Sky conditions: mostly clear
Temperature: 80 F (27 C)
Dew Point: 71 F (22 C)
Relative Humidity: 74%
Pressure (altimeter): 29.94 in. Hg (1014 hPa)
ob: LGKV 281850Z 00000KT 9999 FEW035 27/22 Q1014
cycle: 19

Station Type Date Time Source
LGKV TAF 2021/07/28 18:15 UTC NOAA

TAF TAF LGKV 281700Z 2818/2918 23010KT 9999 FEW030
BECMG 2818/2820 VRB03KT
BECMG 2910/2912 23010KT

Example: see airport list